Terminal Aerodrome Forecast
Issued by NWS Grand Forks, ND

Home | Current Version | Previous Version | Text Only | Print | Product List | Glossary Off
Versions: 1 2 3 4 5 6 7 8 9 10 11 12 13 14 15 16 17 18 19 20 21

489
FTUS43 KFGF 281720
TAFGFK
TAF
KGFK 281720Z 2818/2918 02010KT P6SM VCSH SCT030 BKN080
     FM290200 03006KT P6SM BKN045
     FM290600 VRB03KT P6SM BKN015
     FM291300 30006KT P6SM BKN015=

USA.gov is the U.S. government's official web portal to all federal, state and local government web resources and services.